Time;durP1;ratioP1;P1;durP2;ratioP2;P2;SDS_P1;SDS_P2;PMS_P1;PMS_P2;Temp;Humidity;BMP_temperature;BMP_pressure;BME280_temperature;BME280_humidity;BME280_pressure;Samples;Min_cycle;Max_cycle;Signal;HPM_P1;HPM_P2
2021/06/10 00:00:51;;;;;;;33.17;3.13;;;38.60;14.70;;;;;;4769471;30;20099;-64
2021/06/10 00:03:18;;;;;;;30.13;3.28;;;38.40;15.00;;;;;;4769225;30;20080;-65
2021/06/10 00:05:45;;;;;;;44.42;4.30;;;38.30;14.80;;;;;;4768462;30;20591;-65
2021/06/10 00:08:11;;;;;;;69.05;5.22;;;38.10;15.20;;;;;;4769379;30;20087;-64
2021/06/10 00:10:40;;;;;;;62.47;5.63;;;37.90;15.40;;;;;;4769193;30;20122;-64
2021/06/10 00:13:07;;;;;;;32.05;4.00;;;37.80;15.50;;;;;;4769294;30;20080;-64
2021/06/10 00:15:35;;;;;;;64.70;5.35;;;37.70;15.80;;;;;;4769104;30;20088;-66
2021/06/10 00:18:04;;;;;;;47.53;3.90;;;37.60;15.70;;;;;;4769044;30;20090;-66
2021/06/10 00:20:32;;;;;;;54.25;4.75;;;37.30;16.20;;;;;;4769123;30;20167;-66
2021/06/10 00:22:59;;;;;;;43.13;4.03;;;37.10;16.50;;;;;;4767900;30;20524;-66
2021/06/10 00:25:29;;;;;;;63.45;4.75;;;37.00;16.70;;;;;;4779722;30;20614;-66
2021/06/10 00:27:58;;;;;;;47.97;4.32;;;37.00;16.70;;;;;;4769182;30;20076;-67
2021/06/10 00:30:25;;;;;;;51.47;4.22;;;37.10;16.60;;;;;;4768821;30;20108;-64
2021/06/10 00:32:52;;;;;;;85.25;6.28;;;37.10;16.40;;;;;;4769083;30;20115;-65
2021/06/10 00:35:21;;;;;;;42.53;4.32;;;36.80;16.50;;;;;;4769075;30;20081;-65
2021/06/10 00:37:47;;;;;;;39.75;3.05;;;36.70;16.90;;;;;;4768624;30;20113;-66
2021/06/10 00:40:14;;;;;;;42.97;3.55;;;36.50;16.80;;;;;;4769240;30;20153;-66
2021/06/10 00:42:42;;;;;;;78.82;5.10;;;36.40;17.20;;;;;;4767796;30;20137;-66
2021/06/10 00:45:12;;;;;;;84.20;6.47;;;36.30;17.10;;;;;;4768890;30;20527;-66
2021/06/10 00:47:38;;;;;;;61.00;5.82;;;36.30;16.90;;;;;;4768044;30;20480;-66
2021/06/10 00:50:06;;;;;;;51.38;4.72;;;36.10;17.10;;;;;;4768846;30;20084;-65
2021/06/10 00:52:33;;;;;;;49.88;4.70;;;36.00;17.20;;;;;;4768969;30;20080;-67
2021/06/10 00:55:01;;;;;;;75.78;6.05;;;35.90;17.10;;;;;;4768907;30;20080;-65
2021/06/10 00:57:27;;;;;;;119.35;8.25;;;35.90;17.40;;;;;;4768768;30;20543;-66
2021/06/10 00:59:54;;;;;;;78.60;7.03;;;35.80;17.10;;;;;;4768588;30;20158;-66
2021/06/10 01:02:20;;;;;;;87.97;6.72;;;35.70;17.10;;;;;;4767539;30;20077;-67
2021/06/10 01:04:47;;;;;;;71.22;5.22;;;35.60;17.30;;;;;;4768926;30;20077;-65
2021/06/10 01:07:24;;;;;;;69.75;5.32;;;35.60;17.20;;;;;;4768087;30;20083;-65
2021/06/10 01:10:16;;;;;;;69.32;5.30;;;35.30;17.10;;;;;;4768465;30;20088;-65
2021/06/10 01:13:10;;;;;;;66.82;4.57;;;35.20;17.20;;;;;;4767008;30;20088;-64
2021/06/10 01:15:41;;;;;;;53.33;4.18;;;34.90;17.20;;;;;;4768315;30;20086;-65
2021/06/10 01:18:09;;;;;;;50.35;3.95;;;34.70;17.30;;;;;;4769887;30;20077;-66
2021/06/10 01:20:36;;;;;;;28.42;3.33;;;34.80;17.60;;;;;;4771860;30;20080;-65
2021/06/10 01:23:19;;;;;;;24.70;2.42;;;34.70;17.80;;;;;;4771390;30;20515;-66
2021/06/10 01:26:05;;;;;;;27.20;3.25;;;34.60;18.00;;;;;;4783240;30;20094;-65
2021/06/10 01:28:36;;;;;;;31.30;2.60;;;34.60;18.20;;;;;;4771552;30;20087;-63
2021/06/10 01:31:07;;;;;;;36.25;3.83;;;34.40;18.00;;;;;;4772006;30;20080;-64
2021/06/10 01:33:41;;;;;;;46.47;3.40;;;34.40;18.10;;;;;;4770539;30;20080;-63
2021/06/10 01:36:22;;;;;;;65.13;4.35;;;34.10;18.20;;;;;;4770918;30;20539;-65
2021/06/10 01:38:52;;;;;;;58.13;4.43;;;33.90;18.40;;;;;;4770551;30;20104;-64
2021/06/10 01:41:20;;;;;;;70.93;6.13;;;33.80;18.60;;;;;;4770406;30;20162;-65
2021/06/10 01:43:48;;;;;;;56.90;5.15;;;33.70;18.80;;;;;;4768502;30;20076;-66
2021/06/10 01:46:16;;;;;;;57.92;4.78;;;33.60;18.90;;;;;;4771530;30;20123;-64
2021/06/10 01:48:48;;;;;;;59.00;5.28;;;33.50;19.10;;;;;;4755503;30;20084;-65
2021/06/10 01:51:20;;;;;;;63.47;5.25;;;33.20;19.80;;;;;;4770325;30;20460;-66
2021/06/10 01:53:48;;;;;;;74.68;4.95;;;33.20;19.70;;;;;;4771344;30;20084;-65
2021/06/10 01:56:17;;;;;;;56.55;5.53;;;33.00;19.70;;;;;;4771442;30;20134;-65
2021/06/10 01:58:45;;;;;;;52.28;4.63;;;33.00;19.90;;;;;;4770749;30;20100;-64
2021/06/10 02:01:14;;;;;;;62.47;6.45;;;33.00;28.90;;;;;;4771032;30;20104;-66
2021/06/10 02:03:43;;;;;;;50.42;5.28;;;32.60;20.30;;;;;;4771343;30;20080;-65
2021/06/10 02:06:10;;;;;;;65.70;7.88;;;32.50;20.50;;;;;;4740538;30;20104;-65
2021/06/10 02:08:44;;;;;;;66.72;7.50;;;32.40;20.50;;;;;;4770564;30;20092;-68
2021/06/10 02:11:11;;;;;;;83.13;9.30;;;32.10;20.50;;;;;;4769114;30;20175;-63
2021/06/10 02:13:38;;;;;;;84.60;9.95;;;32.00;20.80;;;;;;4768825;30;20558;-66
2021/06/10 02:16:07;;;;;;;113.05;11.82;;;32.60;26.00;;;;;;4770218;30;20209;-65
2021/06/10 02:18:35;;;;;;;117.40;10.48;;;31.60;21.30;;;;;;4770785;30;20104;-67
2021/06/10 02:21:07;;;;;;;88.22;9.02;;;31.50;21.30;;;;;;4770260;30;20438;-66
2021/06/10 02:23:37;;;;;;;102.75;8.50;;;31.40;21.30;;;;;;4770247;30;20081;-64
2021/06/10 02:26:05;;;;;;;94.35;8.85;;;30.90;20.70;;;;;;4754175;30;20187;-66
2021/06/10 02:28:32;;;;;;;92.30;8.55;;;31.20;21.20;;;;;;4767628;30;20103;-66
2021/06/10 02:31:00;;;;;;;101.20;9.38;;;31.20;21.30;;;;;;4770641;30;20442;-66
2021/06/10 02:33:27;;;;;;;117.78;9.90;;;31.10;21.40;;;;;;4770527;30;20534;-65
2021/06/10 02:35:53;;;;;;;82.38;7.35;;;31.20;21.30;;;;;;4770297;30;20080;-71
2021/06/10 02:38:22;;;;;;;72.22;6.63;;;31.50;20.90;;;;;;4770006;30;20112;-70
2021/06/10 02:40:54;;;;;;;68.97;9.13;;;31.50;20.80;;;;;;4753541;30;20084;-66
2021/06/10 02:43:22;;;;;;;86.28;8.82;;;31.60;20.70;;;;;;4769104;30;20076;-68
2021/06/10 02:45:51;;;;;;;71.13;8.07;;;31.50;20.80;;;;;;4769207;30;20087;-66
2021/06/10 02:48:18;;;;;;;62.42;7.15;;;31.40;20.90;;;;;;4767838;30;20088;-67
2021/06/10 02:50:47;;;;;;;49.90;6.10;;;31.20;21.10;;;;;;4769539;30;20531;-66
2021/06/10 02:53:26;;;;;;;42.08;4.28;;;31.30;21.30;;;;;;4768731;30;20103;-67
2021/06/10 02:55:56;;;;;;;28.50;3.90;;;31.20;21.60;;;;;;4783445;30;20080;-68
2021/06/10 02:58:24;;;;;;;38.50;4.65;;;30.90;22.00;;;;;;4767632;30;20100;-67
2021/06/10 03:00:51;;;;;;;48.40;4.05;;;30.70;22.40;;;;;;4770524;30;20099;-68
2021/06/10 03:03:19;;;;;;;45.08;4.50;;;30.80;22.20;;;;;;4769074;30;20076;-70
2021/06/10 03:05:47;;;;;;;38.75;5.57;;;30.80;22.10;;;;;;4768343;30;20076;-67
2021/06/10 03:08:15;;;;;;;39.55;5.20;;;30.70;22.10;;;;;;4768341;30;20591;-68
2021/06/10 03:10:43;;;;;;;37.85;4.90;;;30.60;22.00;;;;;;4770209;30;20111;-67
2021/06/10 03:13:12;;;;;;;39.35;4.13;;;30.60;21.80;;;;;;4770674;30;20084;-68
2021/06/10 03:15:39;;;;;;;39.55;4.50;;;30.50;21.90;;;;;;4769577;30;20151;-66
2021/06/10 03:18:07;;;;;;;32.05;4.45;;;30.40;21.90;;;;;;4768425;30;20087;-69
2021/06/10 03:20:34;;;;;;;39.67;4.20;;;30.40;22.00;;;;;;4769904;30;20095;-68
2021/06/10 03:23:01;;;;;;;38.70;4.93;;;30.30;21.60;;;;;;4769812;30;20072;-70
2021/06/10 03:25:28;;;;;;;39.10;5.47;;;30.30;21.60;;;;;;4769237;30;20085;-68
2021/06/10 03:27:55;;;;;;;44.33;5.07;;;30.20;21.40;;;;;;4769668;30;20072;-70
2021/06/10 03:30:22;;;;;;;64.55;6.88;;;30.20;21.80;;;;;;4753369;30;20080;-70
2021/06/10 03:32:50;;;;;;;54.42;5.40;;;30.00;21.10;;;;;;4770212;30;20087;-70
2021/06/10 03:35:18;;;;;;;67.53;7.10;;;30.00;21.00;;;;;;4769307;30;20080;-70
2021/06/10 03:37:46;;;;;;;61.33;6.63;;;30.00;20.80;;;;;;4769403;30;20119;-70
2021/06/10 03:40:13;;;;;;;66.43;5.80;;;29.90;20.70;;;;;;4768946;30;20104;-66
2021/06/10 03:42:40;;;;;;;62.80;6.03;;;30.00;20.70;;;;;;4769392;30;20077;-67
2021/06/10 03:45:09;;;;;;;44.65;4.93;;;30.00;20.90;;;;;;4769144;30;20099;-66
2021/06/10 03:47:37;;;;;;;44.25;3.92;;;30.00;20.30;;;;;;4767960;30;20080;-66
2021/06/10 03:50:07;;;;;;;46.45;4.93;;;30.00;20.10;;;;;;4768293;30;20447;-68
2021/06/10 03:52:34;;;;;;;47.38;4.25;;;30.00;19.70;;;;;;4769044;30;20076;-67
2021/06/10 03:55:04;;;;;;;41.72;3.00;;;30.00;19.70;;;;;;4769061;30;20172;-68
2021/06/10 03:57:33;;;;;;;34.35;3.42;;;30.00;19.90;;;;;;4768616;30;20080;-67
2021/06/10 03:59:59;;;;;;;27.00;3.70;;;29.90;20.70;;;;;;4768959;30;20107;-66
2021/06/10 04:02:26;;;;;;;30.92;3.70;;;29.90;20.30;;;;;;4768952;30;20076;-70
2021/06/10 04:04:54;;;;;;;23.20;3.25;;;29.80;20.60;;;;;;4769589;30;20091;-67
2021/06/10 04:07:21;;;;;;;28.15;2.88;;;29.80;21.00;;;;;;4769227;30;20068;-68
2021/06/10 04:09:48;;;;;;;15.98;2.30;;;29.70;21.10;;;;;;4769315;30;20083;-68
2021/06/10 04:12:15;;;;;;;17.13;2.63;;;29.60;21.50;;;;;;4768873;30;20108;-70
2021/06/10 04:14:41;;;;;;;27.23;2.50;;;29.50;21.70;;;;;;4768829;30;20122;-66
2021/06/10 04:17:08;;;;;;;12.57;1.88;;;29.40;21.90;;;;;;4767681;30;20104;-68
2021/06/10 04:19:34;;;;;;;20.15;3.42;;;29.30;22.20;;;;;;4768788;30;20112;-68
2021/06/10 04:22:01;;;;;;;14.48;1.90;;;29.20;22.50;;;;;;4768682;30;20088;-68
2021/06/10 04:24:28;;;;;;;9.68;1.65;;;29.20;22.70;;;;;;4768213;30;20076;-68
2021/06/10 04:26:55;;;;;;;17.90;2.20;;;29.20;22.70;;;;;;4766544;30;20167;-68
2021/06/10 04:29:21;;;;;;;13.82;1.90;;;29.10;23.10;;;;;;4770029;30;20162;-68
2021/06/10 04:31:48;;;;;;;18.45;2.13;;;29.10;22.30;;;;;;4767846;30;20103;-67
2021/06/10 04:34:15;;;;;;;20.10;2.20;;;29.10;22.20;;;;;;4769162;30;20092;-68
2021/06/10 04:36:43;;;;;;;17.63;2.30;;;29.10;22.30;;;;;;4768415;30;20116;-68
2021/06/10 04:39:10;;;;;;;31.60;2.60;;;29.00;22.70;;;;;;4768481;30;20557;-68
2021/06/10 04:41:37;;;;;;;16.17;2.60;;;28.80;22.80;;;;;;4768875;30;20080;-67
2021/06/10 04:44:04;;;;;;;34.42;2.78;;;28.70;23.00;;;;;;4768757;30;20506;-66
2021/06/10 04:46:32;;;;;;;16.48;2.70;;;28.50;23.00;;;;;;4769271;30;20091;-68
2021/06/10 04:49:00;;;;;;;18.20;2.42;;;28.40;23.20;;;;;;4769613;29;20124;-68
2021/06/10 04:51:27;;;;;;;22.00;2.33;;;28.30;23.10;;;;;;4770039;30;20080;-69
2021/06/10 04:53:54;;;;;;;19.52;2.05;;;28.40;22.70;;;;;;4774108;30;20133;-67
2021/06/10 04:56:24;;;;;;;14.98;2.67;;;28.30;22.80;;;;;;4771430;30;20079;-65
2021/06/10 04:58:50;;;;;;;6.78;1.40;;;28.20;22.70;;;;;;4771863;30;20104;-65
2021/06/10 05:01:17;;;;;;;14.52;1.85;;;28.20;22.70;;;;;;4770990;30;20088;-68
2021/06/10 05:03:44;;;;;;;14.75;1.98;;;28.20;22.50;;;;;;4756440;30;20100;-66
2021/06/10 05:06:10;;;;;;;12.88;1.75;;;28.20;22.20;;;;;;4771947;30;20095;-67
2021/06/10 05:08:37;;;;;;;7.85;1.25;;;28.20;22.20;;;;;;4771764;30;20091;-66
2021/06/10 05:11:03;;;;;;;16.40;1.58;;;28.30;22.20;;;;;;4771779;30;20092;-67
2021/06/10 05:13:30;;;;;;;19.83;1.80;;;28.30;22.20;;;;;;4770588;30;20087;-66
2021/06/10 05:15:57;;;;;;;12.57;2.22;;;28.30;21.90;;;;;;4771484;30;20546;-66
2021/06/10 05:18:23;;;;;;;13.13;1.42;;;28.30;22.20;;;;;;4771980;30;20080;-67
2021/06/10 05:20:50;;;;;;;14.80;1.70;;;28.20;22.30;;;;;;4771504;30;20130;-67
2021/06/10 05:23:17;;;;;;;22.63;2.13;;;28.20;22.20;;;;;;4771533;30;20157;-69
2021/06/10 05:25:44;;;;;;;20.25;1.88;;;28.20;22.00;;;;;;4771505;30;20080;-65
2021/06/10 05:28:11;;;;;;;16.48;2.13;;;28.20;21.70;;;;;;4771451;30;20099;-66
2021/06/10 05:30:37;;;;;;;14.10;1.77;;;28.20;21.80;;;;;;4770386;30;20178;-68
2021/06/10 05:33:04;;;;;;;7.40;1.90;;;28.20;22.00;;;;;;4772418;30;20090;-65
2021/06/10 05:35:31;;;;;;;10.02;1.45;;;28.10;22.20;;;;;;4771443;30;20134;-65
2021/06/10 05:37:57;;;;;;;9.52;1.60;;;28.00;22.30;;;;;;4771362;30;20115;-67
2021/06/10 05:40:24;;;;;;;8.82;1.40;;;28.00;22.30;;;;;;4771605;30;20114;-65
2021/06/10 05:42:50;;;;;;;9.07;1.60;;;28.00;22.30;;;;;;4771736;30;20503;-67
2021/06/10 05:45:17;;;;;;;10.35;1.40;;;27.90;22.30;;;;;;4770124;30;20088;-65
2021/06/10 05:47:43;;;;;;;13.30;1.80;;;28.00;22.40;;;;;;4771434;30;20215;-69
2021/06/10 05:50:10;;;;;;;13.20;2.15;;;27.90;22.40;;;;;;4771446;30;20561;-64
2021/06/10 05:52:39;;;;;;;9.90;1.60;;;27.80;22.70;;;;;;4770651;30;20085;-66
2021/06/10 05:55:07;;;;;;;10.10;1.30;;;27.80;22.70;;;;;;4771528;30;20141;-65
2021/06/10 05:57:33;;;;;;;13.02;2.20;;;27.70;22.90;;;;;;4770169;30;20467;-65
2021/06/10 06:00:00;;;;;;;10.88;1.52;;;27.70;23.10;;;;;;4771051;30;20107;-64
2021/06/10 06:02:27;;;;;;;16.17;2.25;;;27.60;23.30;;;;;;4771189;30;20076;-67
2021/06/10 06:04:53;;;;;;;20.40;2.28;;;27.50;23.40;;;;;;4771273;30;20141;-65
2021/06/10 06:07:20;;;;;;;8.40;1.60;;;27.50;23.60;;;;;;4770947;30;20081;-67
2021/06/10 06:09:46;;;;;;;48.55;3.47;;;27.40;23.60;;;;;;4771574;30;20080;-65
2021/06/10 06:12:15;;;;;;;10.38;1.83;;;27.40;23.70;;;;;;4771461;30;20072;-66
2021/06/10 06:14:45;;;;;;;15.52;2.00;;;27.20;23.60;;;;;;4768853;30;20083;-65
2021/06/10 06:17:13;;;;;;;18.70;2.00;;;27.20;23.70;;;;;;4768895;30;20076;-66
2021/06/10 06:19:39;;;;;;;16.25;1.98;;;27.20;23.60;;;;;;4768586;30;20115;-66
2021/06/10 06:22:08;;;;;;;8.93;1.83;;;27.10;23.70;;;;;;4769784;30;20160;-65
2021/06/10 06:24:35;;;;;;;13.75;1.90;;;27.10;23.60;;;;;;4770018;29;20563;-65
2021/06/10 06:27:02;;;;;;;10.00;2.00;;;27.10;23.30;;;;;;4769813;30;20126;-66
2021/06/10 06:29:29;;;;;;;11.80;1.60;;;27.00;23.10;;;;;;4768233;30;20099;-66
2021/06/10 06:31:56;;;;;;;4.07;1.50;;;27.00;23.10;;;;;;4768655;30;20088;-66
2021/06/10 06:34:23;;;;;;;13.32;1.80;;;27.00;23.10;;;;;;4767831;30;20086;-66
2021/06/10 06:36:49;;;;;;;12.38;1.90;;;27.00;22.90;;;;;;4768294;30;21378;-67
2021/06/10 06:39:16;;;;;;;9.65;1.75;;;26.90;22.80;;;;;;4768755;30;20254;-65
2021/06/10 06:41:42;;;;;;;16.85;2.03;;;26.90;22.80;;;;;;4769908;30;20090;-64
2021/06/10 06:44:09;;;;;;;11.93;1.50;;;26.90;22.80;;;;;;4769356;30;20096;-67
2021/06/10 06:46:36;;;;;;;15.73;1.63;;;26.80;22.80;;;;;;4769400;30;20077;-67
2021/06/10 06:49:03;;;;;;;16.88;1.70;;;26.80;22.80;;;;;;4768536;30;20184;-66
2021/06/10 06:51:30;;;;;;;10.85;1.70;;;26.70;22.60;;;;;;4768167;30;20134;-66
2021/06/10 06:53:57;;;;;;;9.82;2.00;;;26.70;22.70;;;;;;4769650;30;20095;-66
2021/06/10 06:56:24;;;;;;;11.43;1.55;;;26.70;22.40;;;;;;4769668;30;20080;-67
2021/06/10 06:58:52;;;;;;;11.65;1.35;;;26.70;22.20;;;;;;4770451;30;20099;-66
2021/06/10 07:01:19;;;;;;;11.77;1.50;;;26.70;22.10;;;;;;4769388;30;20123;-66
2021/06/10 07:03:46;;;;;;;11.98;1.10;;;26.70;21.90;;;;;;4770120;30;20100;-66
2021/06/10 07:06:12;;;;;;;12.23;1.60;;;26.70;21.70;;;;;;4769340;30;20551;-66
2021/06/10 07:08:39;;;;;;;12.13;1.00;;;26.80;21.20;;;;;;4768031;30;20084;-66
2021/06/10 07:11:06;;;;;;;9.73;1.80;;;26.80;21.10;;;;;;4768140;30;20085;-66
2021/06/10 07:13:33;;;;;;;12.15;1.52;;;26.70;20.60;;;;;;4753170;30;20151;-67
2021/06/10 07:15:59;;;;;;;13.50;1.58;;;26.80;20.30;;;;;;4767766;30;20153;-66
2021/06/10 07:18:26;;;;;;;11.68;1.52;;;26.80;20.10;;;;;;4765850;30;20077;-66
2021/06/10 07:20:54;;;;;;;9.35;1.33;;;26.70;20.00;;;;;;4769224;30;20081;-67
2021/06/10 07:23:20;;;;;;;8.52;1.30;;;26.80;19.90;;;;;;4767785;30;20168;-67
2021/06/10 07:25:47;;;;;;;20.25;1.25;;;26.80;19.80;;;;;;4768976;30;20088;-66
2021/06/10 07:28:14;;;;;;;8.50;1.50;;;26.70;19.50;;;;;;4768837;30;20148;-66
2021/06/10 07:30:40;;;;;;;7.40;1.00;;;26.70;19.40;;;;;;4767466;30;20611;-65
2021/06/10 07:33:07;;;;;;;8.27;1.25;;;26.70;19.10;;;;;;4768890;30;20084;-67
2021/06/10 07:35:35;;;;;;;4.95;1.17;;;26.70;19.00;;;;;;4769250;30;20168;-66
2021/06/10 07:38:04;;;;;;;11.35;1.50;;;26.70;18.80;;;;;;4768642;30;20195;-65
2021/06/10 07:40:31;;;;;;;10.27;1.10;;;26.60;18.60;;;;;;4768692;30;20165;-65
2021/06/10 07:42:58;;;;;;;9.02;1.38;;;26.60;18.50;;;;;;4768747;30;20094;-65
2021/06/10 07:45:27;;;;;;;11.60;1.20;;;26.60;18.90;;;;;;4768704;30;20574;-65
2021/06/10 07:47:53;;;;;;;6.45;0.95;;;26.60;18.30;;;;;;4768816;30;20104;-67
2021/06/10 07:50:20;;;;;;;6.20;1.30;;;26.60;18.10;;;;;;4768515;30;20431;-66
2021/06/10 07:52:46;;;;;;;13.20;1.48;;;26.60;18.00;;;;;;4768854;30;20479;-66
2021/06/10 07:55:13;;;;;;;6.10;1.17;;;26.60;17.70;;;;;;4768570;30;20489;-66
2021/06/10 07:57:40;;;;;;;11.15;1.17;;;26.60;17.40;;;;;;4768451;30;20462;-66
2021/06/10 08:00:08;;;;;;;8.63;1.42;;;26.60;17.20;;;;;;4766835;30;20131;-66
2021/06/10 08:02:35;;;;;;;7.10;1.10;;;26.60;17.20;;;;;;4769706;30;20539;-66
2021/06/10 08:05:02;;;;;;;8.30;1.25;;;26.60;17.00;;;;;;4769031;30;20104;-68
2021/06/10 08:07:29;;;;;;;11.98;1.15;;;26.70;16.90;;;;;;4769189;30;20072;-67
2021/06/10 08:09:58;;;;;;;6.00;1.10;;;26.70;16.70;;;;;;4766999;30;20076;-66
2021/06/10 08:12:25;;;;;;;11.82;1.30;;;26.70;16.60;;;;;;4768400;30;20161;-66
2021/06/10 08:14:51;;;;;;;7.20;1.42;;;26.70;16.30;;;;;;4769174;30;20076;-66
2021/06/10 08:17:18;;;;;;;9.52;1.30;;;26.70;15.90;;;;;;4768464;30;20084;-67
2021/06/10 08:19:45;;;;;;;7.68;0.93;;;26.70;15.90;;;;;;4768704;30;20104;-66
2021/06/10 08:22:11;;;;;;;11.57;1.42;;;26.70;15.70;;;;;;4768191;30;20103;-68
2021/06/10 08:24:38;;;;;;;6.00;1.20;;;26.70;15.60;;;;;;4768320;30;20492;-67
2021/06/10 08:27:08;;;;;;;9.52;1.30;;;26.70;15.60;;;;;;4769315;30;20076;-67
2021/06/10 08:29:35;;;;;;;5.65;1.17;;;26.70;15.50;;;;;;4770903;30;20087;-67
2021/06/10 08:32:02;;;;;;;10.45;0.95;;;26.60;15.40;;;;;;4770723;30;20077;-67
2021/06/10 08:34:28;;;;;;;6.50;1.02;;;26.60;15.40;;;;;;4772398;30;20084;-66
2021/06/10 08:36:55;;;;;;;5.85;1.27;;;26.50;15.90;;;;;;4771466;30;20245;-66
2021/06/10 08:39:21;;;;;;;6.30;1.30;;;26.40;17.00;;;;;;4768776;30;20126;-66
2021/06/10 08:41:48;;;;;;;7.00;1.67;;;26.30;18.10;;;;;;4769804;30;20068;-66
2021/06/10 08:44:14;;;;;;;5.88;1.00;;;26.10;18.30;;;;;;4770356;30;20454;-66
2021/06/10 08:46:41;;;;;;;4.93;1.00;;;26.00;18.00;;;;;;4769380;30;20536;-67
2021/06/10 08:49:08;;;;;;;7.15;0.98;;;26.00;17.90;;;;;;4770585;30;20095;-66
2021/06/10 08:51:36;;;;;;;9.65;1.52;;;25.90;17.70;;;;;;4770257;30;20084;-68
2021/06/10 08:54:03;;;;;;;7.82;1.15;;;25.90;17.80;;;;;;4770382;30;20086;-67
2021/06/10 08:56:32;;;;;;;2.67;0.90;;;25.90;17.90;;;;;;4770507;30;20138;-66
2021/06/10 08:58:59;;;;;;;5.10;0.90;;;25.90;18.00;;;;;;4770835;29;20163;-67
2021/06/10 09:01:26;;;;;;;5.13;1.20;;;25.80;18.50;;;;;;4772711;30;20477;-67
2021/06/10 09:03:54;;;;;;;5.47;1.10;;;25.80;19.20;;;;;;4772015;30;20110;-67
2021/06/10 09:06:21;;;;;;;6.05;1.02;;;25.80;19.60;;;;;;4783898;30;20880;-66
2021/06/10 09:08:58;;;;;;;4.35;1.00;;;25.70;19.90;;;;;;4769418;30;20095;-66
2021/06/10 09:11:26;;;;;;;4.00;0.80;;;25.60;20.40;;;;;;4770674;30;20164;-67
2021/06/10 09:13:56;;;;;;;5.90;0.90;;;25.50;20.60;;;;;;4770476;30;20155;-68
2021/06/10 09:16:31;;;;;;;2.35;0.80;;;25.40;20.70;;;;;;4770128;30;20168;-66
2021/06/10 09:19:06;;;;;;;5.32;0.93;;;25.30;20.40;;;;;;4770143;30;20100;-67
2021/06/10 09:21:42;;;;;;;7.15;1.33;;;25.30;20.10;;;;;;4769324;30;20080;-66
2021/06/10 09:24:23;;;;;;;8.47;1.50;;;25.20;18.20;;;;;;4770290;30;20076;-65
2021/06/10 09:27:10;;;;;;;14.70;1.83;;;25.30;17.20;;;;;;4769833;30;20300;-66
2021/06/10 09:29:52;;;;;;;9.48;1.10;;;25.40;16.70;;;;;;4769352;30;20084;-66
2021/06/10 09:32:25;;;;;;;13.38;1.50;;;25.50;16.70;;;;;;4769436;30;20167;-66
2021/06/10 09:35:05;;;;;;;12.55;1.00;;;25.50;16.50;;;;;;4767439;30;20076;-66
2021/06/10 09:37:35;;;;;;;17.27;2.00;;;25.60;16.10;;;;;;4748962;30;581402;-66
2021/06/10 09:40:11;;;;;;;9.60;1.45;;;25.60;15.70;;;;;;4762858;30;20123;-67
2021/06/10 09:42:39;;;;;;;11.10;1.50;;;25.70;15.60;;;;;;4769895;30;20083;-66
2021/06/10 09:45:23;;;;;;;9.13;1.08;;;25.70;15.30;;;;;;4770898;30;20088;-66
2021/06/10 09:47:53;;;;;;;8.63;1.00;;;25.80;15.10;;;;;;4769571;30;20076;-65
2021/06/10 09:50:42;;;;;;;9.73;1.38;;;25.90;14.80;;;;;;4768718;30;20214;-66
2021/06/10 09:53:18;;;;;;;21.17;1.98;;;25.90;14.90;;;;;;4770635;30;20080;-67
2021/06/10 09:55:53;;;;;;;23.73;1.95;;;25.90;15.30;;;;;;4773466;29;20112;-66
2021/06/10 09:58:24;;;;;;;8.55;1.13;;;25.90;15.30;;;;;;4772385;30;20158;-64
2021/06/10 10:00:56;;;;;;;13.70;1.17;;;25.90;15.60;;;;;;4773292;30;20102;-65
2021/06/10 10:03:26;;;;;;;7.80;1.50;;;25.80;16.20;;;;;;4773202;30;20458;-66
2021/06/10 10:05:54;;;;;;;9.73;1.75;;;25.80;17.00;;;;;;4772668;30;20443;-66
2021/06/10 10:08:21;;;;;;;20.38;1.70;;;25.80;17.50;;;;;;4772022;30;20140;-66
2021/06/10 10:10:47;;;;;;;12.35;1.17;;;25.70;17.30;;;;;;4770617;30;20084;-66
2021/06/10 10:13:16;;;;;;;12.82;1.17;;;25.60;17.20;;;;;;4770607;30;20095;-66
2021/06/10 10:15:44;;;;;;;14.80;1.40;;;25.60;17.50;;;;;;4770827;30;20542;-65
2021/06/10 10:18:12;;;;;;;22.02;1.23;;;25.60;17.50;;;;;;4770962;30;20147;-66
2021/06/10 10:20:39;;;;;;;16.52;1.90;;;25.60;17.70;;;;;;4769984;30;20096;-67
2021/06/10 10:23:07;;;;;;;16.08;1.77;;;25.50;17.70;;;;;;4768679;30;20571;-66
2021/06/10 10:25:35;;;;;;;17.95;1.20;;;25.50;17.60;;;;;;4769650;30;20080;-66
2021/06/10 10:28:06;;;;;;;18.55;1.85;;;25.50;17.50;;;;;;4769484;30;20087;-66
2021/06/10 10:30:33;;;;;;;18.02;1.75;;;25.30;17.50;;;;;;4769931;30;20073;-66
2021/06/10 10:33:16;;;;;;;31.17;2.72;;;25.30;17.60;;;;;;4769977;30;20087;-66
2021/06/10 10:36:03;;;;;;;25.02;2.25;;;25.30;17.60;;;;;;4768940;30;20539;-66
2021/06/10 10:38:41;;;;;;;23.13;1.70;;;25.30;17.40;;;;;;4769167;30;20131;-66
2021/06/10 10:41:14;;;;;;;23.55;3.05;;;25.20;17.40;;;;;;4768757;30;20455;-66
2021/06/10 10:43:42;;;;;;;21.88;1.73;;;25.20;17.50;;;;;;4770133;30;20076;-66
2021/06/10 10:46:20;;;;;;;26.77;2.13;;;25.20;17.00;;;;;;4767614;30;20088;-66
2021/06/10 10:48:49;;;;;;;26.25;2.15;;;25.20;16.90;;;;;;4768389;30;20477;-66
2021/06/10 10:51:45;;;;;;;19.13;2.40;;;25.20;16.80;;;;;;4769348;30;20091;-66
2021/06/10 10:54:37;;;;;;;27.50;2.40;;;25.20;16.50;;;;;;4759518;30;20118;-66
2021/06/10 10:57:04;;;;;;;20.40;1.40;;;25.20;16.20;;;;;;4769042;30;20092;-66
2021/06/10 10:59:43;;;;;;;16.65;1.80;;;25.10;16.10;;;;;;4769278;30;20130;-66
2021/06/10 11:02:13;;;;;;;24.42;1.58;;;25.10;16.10;;;;;;4768827;30;20091;-65
2021/06/10 11:04:54;;;;;;;14.57;1.65;;;25.10;15.90;;;;;;4769716;30;20080;-65
2021/06/10 11:07:39;;;;;;;15.43;1.35;;;25.00;15.90;;;;;;4768449;30;20094;-65
2021/06/10 11:10:11;;;;;;;20.58;1.55;;;25.00;16.10;;;;;;4769656;30;20084;-66
2021/06/10 11:12:51;;;;;;;11.48;1.23;;;24.90;16.20;;;;;;4767236;30;20092;-66
2021/06/10 11:15:29;;;;;;;8.20;1.30;;;24.90;16.20;;;;;;4768468;30;20553;-66
2021/06/10 11:17:59;;;;;;;10.60;1.17;;;24.80;16.20;;;;;;4769247;30;20083;-65
2021/06/10 11:20:38;;;;;;;18.73;1.58;;;24.70;16.20;;;;;;4769287;30;20629;-67
2021/06/10 11:23:13;;;;;;;8.25;1.27;;;24.70;16.20;;;;;;4769121;30;20091;-65
2021/06/10 11:25:46;;;;;;;9.27;1.25;;;24.70;16.00;;;;;;4768131;30;20550;-65
2021/06/10 11:28:16;;;;;;;7.80;1.58;;;24.60;15.90;;;;;;4768369;30;20088;-65
2021/06/10 11:30:43;;;;;;;21.95;1.98;;;24.70;15.80;;;;;;4768887;30;20092;-67
2021/06/10 11:33:16;;;;;;;22.33;1.85;;;24.60;15.60;;;;;;4768330;30;20116;-66
2021/06/10 11:36:01;;;;;;;31.38;2.10;;;24.70;15.50;;;;;;4768469;30;20072;-66
2021/06/10 11:38:29;;;;;;;28.02;2.30;;;24.70;15.20;;;;;;4768040;30;20119;-65
2021/06/10 11:40:56;;;;;;;26.30;1.70;;;24.70;15.30;;;;;;4768570;30;20092;-66
2021/06/10 11:43:24;;;;;;;30.95;2.60;;;24.70;15.30;;;;;;4768946;30;20084;-66
2021/06/10 11:45:57;;;;;;;61.05;3.53;;;24.70;15.50;;;;;;4768428;30;20080;-67
2021/06/10 11:48:37;;;;;;;56.28;4.10;;;24.70;15.40;;;;;;4768080;30;20169;-67
2021/06/10 11:51:23;;;;;;;89.88;6.57;;;24.70;15.10;;;;;;4766983;30;20530;-66
2021/06/10 11:53:51;;;;;;;84.18;6.47;;;24.70;15.00;;;;;;4767653;30;20175;-66
2021/06/10 11:56:26;;;;;;;78.93;4.95;;;24.80;15.00;;;;;;4767824;30;20179;-65
2021/06/10 11:58:53;;;;;;;80.63;6.30;;;24.80;14.10;;;;;;4768519;30;20134;-66
2021/06/10 12:01:22;;;;;;;65.18;4.65;;;24.90;14.10;;;;;;4768437;30;20078;-66
2021/06/10 12:03:49;;;;;;;83.25;5.03;;;24.90;13.70;;;;;;4767712;30;20088;-66
2021/06/10 12:06:17;;;;;;;49.65;4.20;;;25.00;13.90;;;;;;4768835;30;20157;-66
2021/06/10 12:08:47;;;;;;;56.00;2.97;;;25.00;13.90;;;;;;4768556;30;20084;-66
2021/06/10 12:11:16;;;;;;;45.00;3.03;;;25.00;13.90;;;;;;4752926;30;20163;-66
2021/06/10 12:13:55;;;;;;;30.30;2.10;;;25.00;13.80;;;;;;4768845;30;20531;-66
2021/06/10 12:16:22;;;;;;;39.40;2.33;;;25.00;14.00;;;;;;4768832;30;20425;-67
2021/06/10 12:18:50;;;;;;;13.85;1.77;;;25.00;14.20;;;;;;4767771;30;20182;-67
2021/06/10 12:21:26;;;;;;;25.00;2.25;;;25.00;14.10;;;;;;4767151;30;20080;-66
2021/06/10 12:23:59;;;;;;;19.55;2.00;;;25.00;13.90;;;;;;4767775;30;20091;-66
2021/06/10 12:26:28;;;;;;;19.17;1.40;;;25.00;14.30;;;;;;4768213;30;20141;-65
2021/06/10 12:28:59;;;;;;;18.50;1.73;;;25.00;14.50;;;;;;4767216;30;20111;-64
2021/06/10 12:31:33;;;;;;;28.23;1.88;;;25.00;14.60;;;;;;4767528;30;21517;-65
2021/06/10 12:34:06;;;;;;;19.88;1.50;;;25.00;14.60;;;;;;4766628;30;20087;-65
2021/06/10 12:36:35;;;;;;;12.15;1.40;;;25.00;14.40;;;;;;4768286;30;20083;-65
2021/06/10 12:39:16;;;;;;;21.45;1.77;;;25.00;14.00;;;;;;4766290;30;20096;-65
2021/06/10 12:41:47;;;;;;;5.43;0.75;;;25.00;13.80;;;;;;4767773;30;20080;-66
2021/06/10 12:44:15;;;;;;;13.05;1.67;;;25.00;13.80;;;;;;4767931;30;20535;-66
2021/06/10 12:46:49;;;;;;;12.25;1.00;;;25.00;13.70;;;;;;4767108;30;20145;-66
2021/06/10 12:49:17;;;;;;;5.10;0.80;;;25.00;13.70;;;;;;4767919;30;20134;-66